createdAt,value
2023-03-07T00:00:54.036Z,99154.13
2023-03-07T00:03:21.046Z,99151.34
2023-03-07T00:05:47.667Z,99143.31
2023-03-07T00:08:14.239Z,99137.31
2023-03-07T00:10:40.865Z,99138.53
2023-03-07T00:13:08.879Z,99141.13
2023-03-07T00:15:37.870Z,99138.19
2023-03-07T00:18:04.923Z,99137.31
2023-03-07T00:20:31.527Z,99132.81
2023-03-07T00:22:58.113Z,99131.94
2023-03-07T00:25:24.634Z,99130.13
2023-03-07T00:27:51.252Z,99119.97
2023-03-07T00:30:17.917Z,99119.66
2023-03-07T00:32:44.444Z,99121.25
2023-03-07T00:35:11.000Z,99106.75
2023-03-07T00:37:37.516Z,99110.81
2023-03-07T00:40:06.234Z,99104.13
2023-03-07T00:42:32.857Z,99096.75
2023-03-07T00:44:59.393Z,99093.09
2023-03-07T00:47:25.904Z,99095.28
2023-03-07T00:49:52.466Z,99091.97
2023-03-07T00:52:19.082Z,99086.88
2023-03-07T00:54:45.673Z,99096.16
2023-03-07T00:57:12.230Z,99080.53
2023-03-07T00:59:38.825Z,99083.88
2023-03-07T01:02:05.657Z,99079.53
2023-03-07T01:04:32.339Z,99076.28
2023-03-07T01:06:58.893Z,99076.22
2023-03-07T01:09:25.455Z,99076.22
2023-03-07T01:11:52.078Z,99068.41
2023-03-07T01:14:18.632Z,99067.63
2023-03-07T01:16:45.263Z,99069.28
2023-03-07T01:19:12.836Z,99059.91
2023-03-07T01:21:42.690Z,99057.00
2023-03-07T01:24:14.138Z,99054.53
2023-03-07T01:26:40.860Z,99048.53
2023-03-07T01:29:08.963Z,99045.75
2023-03-07T01:31:35.752Z,99038.75
2023-03-07T01:34:02.955Z,99035.41
2023-03-07T01:36:33.278Z,99041.09
2023-03-07T01:39:05.068Z,99044.22
2023-03-07T01:41:32.497Z,99034.81
2023-03-07T01:44:05.399Z,99036.09
2023-03-07T01:46:43.240Z,99023.56
2023-03-07T01:49:24.907Z,99023.28
2023-03-07T01:51:58.315Z,99012.84
2023-03-07T01:54:26.388Z,99012.78
2023-03-07T01:56:53.565Z,99014.75
2023-03-07T01:59:29.106Z,99003.50
2023-03-07T02:01:57.797Z,98997.47
2023-03-07T02:04:32.397Z,98986.19
2023-03-07T02:07:02.700Z,98994.19
2023-03-07T02:09:31.338Z,98990.31
2023-03-07T02:12:00.607Z,98982.72
2023-03-07T02:14:27.569Z,98982.72
2023-03-07T02:16:54.548Z,98974.41
2023-03-07T02:19:33.314Z,98967.34
2023-03-07T02:22:09.629Z,98968.06
2023-03-07T02:24:48.782Z,98965.63
2023-03-07T02:27:15.492Z,98958.81
2023-03-07T02:29:42.523Z,98955.81
2023-03-07T02:32:09.426Z,98955.22
2023-03-07T02:34:36.256Z,98959.28
2023-03-07T02:37:11.886Z,98952.44
2023-03-07T02:39:44.163Z,98949.09
2023-03-07T02:42:18.745Z,98953.75
2023-03-07T02:44:46.816Z,98957.44
2023-03-07T02:47:14.035Z,98947.31
2023-03-07T02:49:40.650Z,98944.84
2023-03-07T02:52:07.238Z,98952.03
2023-03-07T02:54:33.820Z,98947.84
2023-03-07T02:57:00.438Z,98947.63
2023-03-07T02:59:27.032Z,98943.16
2023-03-07T03:01:53.792Z,98936.50
2023-03-07T03:04:20.358Z,98929.38
2023-03-07T03:06:46.914Z,98920.84
2023-03-07T03:09:13.749Z,98913.28
2023-03-07T03:11:40.387Z,98922.31
2023-03-07T03:14:06.975Z,98915.00
2023-03-07T03:16:33.577Z,98915.53
2023-03-07T03:19:00.364Z,98914.78
2023-03-07T03:21:27.100Z,98899.69
2023-03-07T03:23:53.679Z,98898.09
2023-03-07T03:26:20.192Z,98891.44
2023-03-07T03:28:46.780Z,98871.09
2023-03-07T03:31:16.681Z,98865.28
2023-03-07T03:33:44.646Z,98857.16
2023-03-07T03:36:14.752Z,98861.44
2023-03-07T03:38:41.672Z,98858.69
2023-03-07T03:41:11.390Z,98862.28
2023-03-07T03:43:38.009Z,98860.56
2023-03-07T03:46:04.921Z,98842.94
2023-03-07T03:48:31.536Z,98838.63
2023-03-07T03:51:12.201Z,98837.00
2023-03-07T03:53:40.069Z,98825.22
2023-03-07T03:56:10.016Z,98827.16
2023-03-07T03:58:36.740Z,98832.69
2023-03-07T04:01:05.899Z,98824.28
2023-03-07T04:03:34.240Z,98826.69
2023-03-07T04:06:06.457Z,98817.38
2023-03-07T04:08:34.239Z,98809.13
2023-03-07T04:11:01.426Z,98809.94
2023-03-07T04:13:28.577Z,98800.88
2023-03-07T04:15:55.085Z,98804.59
2023-03-07T04:18:22.725Z,98807.44
2023-03-07T04:20:50.746Z,98805.06
2023-03-07T04:23:18.826Z,98792.63
2023-03-07T04:25:55.946Z,98796.16
2023-03-07T04:28:24.764Z,98809.47
2023-03-07T04:30:53.162Z,98800.56
2023-03-07T04:33:20.562Z,98800.69
2023-03-07T04:35:47.263Z,98813.31
2023-03-07T04:38:15.707Z,98811.75
2023-03-07T04:40:42.275Z,98817.50
2023-03-07T04:43:08.816Z,98823.53
2023-03-07T04:45:39.978Z,98822.69
2023-03-07T04:48:06.972Z,98809.63
2023-03-07T04:50:33.583Z,98806.69
2023-03-07T04:53:00.150Z,98804.25
2023-03-07T04:55:26.720Z,98794.28
2023-03-07T04:57:53.337Z,98800.31
2023-03-07T05:00:20.883Z,98801.72
2023-03-07T05:02:48.632Z,98811.97
2023-03-07T05:05:16.882Z,98813.78
2023-03-07T05:07:44.418Z,98822.94
2023-03-07T05:10:11.702Z,98816.31
2023-03-07T05:12:38.296Z,98814.84
2023-03-07T05:15:05.352Z,98816.81
2023-03-07T05:17:31.923Z,98816.63
2023-03-07T05:19:58.441Z,98807.09
2023-03-07T05:22:25.043Z,98811.16
2023-03-07T05:24:52.105Z,98808.16
2023-03-07T05:27:18.660Z,98808.00
2023-03-07T05:29:45.257Z,98806.41
2023-03-07T05:32:11.913Z,98797.88
2023-03-07T05:34:38.542Z,98788.78
2023-03-07T05:37:05.269Z,98790.47
2023-03-07T05:39:31.881Z,98787.97
2023-03-07T05:41:58.468Z,98787.75
2023-03-07T05:44:24.983Z,98786.38
2023-03-07T05:46:52.021Z,98782.78
2023-03-07T05:49:18.809Z,98774.06
2023-03-07T05:51:45.326Z,98766.41
2023-03-07T05:54:11.878Z,98762.47
2023-03-07T05:56:38.381Z,98773.06
2023-03-07T05:59:07.751Z,98770.78
2023-03-07T06:01:34.736Z,98764.91
2023-03-07T06:04:01.452Z,98769.09
2023-03-07T06:06:28.090Z,98775.22
2023-03-07T06:08:54.905Z,98766.13
2023-03-07T06:11:21.430Z,98765.66
2023-03-07T06:13:47.943Z,98773.47
2023-03-07T06:16:14.544Z,98776.78
2023-03-07T06:18:41.109Z,98778.31
2023-03-07T06:21:09.006Z,98783.41
2023-03-07T06:23:36.851Z,98780.13
2023-03-07T06:26:04.939Z,98782.72
2023-03-07T06:28:32.928Z,98784.63
2023-03-07T06:30:59.931Z,98785.97
2023-03-07T06:33:26.652Z,98785.78
2023-03-07T06:35:53.264Z,98781.56
2023-03-07T06:38:19.843Z,98789.50
2023-03-07T06:40:55.640Z,98800.25
2023-03-07T06:43:22.525Z,98793.63
2023-03-07T06:45:49.122Z,98786.91
2023-03-07T06:48:15.780Z,98796.59
2023-03-07T06:50:42.280Z,98790.97
2023-03-07T06:53:08.950Z,98779.78
2023-03-07T06:55:35.785Z,98786.63
2023-03-07T06:58:02.415Z,98789.47
2023-03-07T07:00:29.231Z,98791.88
2023-03-07T07:02:56.543Z,98776.13
2023-03-07T07:05:23.237Z,98778.84
2023-03-07T07:07:49.845Z,98786.44
2023-03-07T07:10:16.592Z,98791.28
2023-03-07T07:12:43.258Z,98791.34
2023-03-07T07:15:10.344Z,98794.16
2023-03-07T07:17:38.928Z,98791.16
2023-03-07T07:20:06.971Z,98790.13
2023-03-07T07:22:34.008Z,98796.09
2023-03-07T07:25:00.571Z,98785.31
2023-03-07T07:27:28.962Z,98783.72
2023-03-07T07:29:55.559Z,98789.84
2023-03-07T07:32:22.277Z,98793.53
2023-03-07T07:34:48.959Z,98803.34
2023-03-07T07:37:15.547Z,98810.72
2023-03-07T07:39:43.946Z,98808.94
2023-03-07T07:42:11.827Z,98797.41
2023-03-07T07:44:38.643Z,98797.41
2023-03-07T07:47:05.420Z,98794.94
2023-03-07T07:49:32.020Z,98789.56
2023-03-07T07:51:58.814Z,98785.59
2023-03-07T07:54:25.807Z,98781.00
2023-03-07T07:56:52.409Z,98766.22
2023-03-07T07:59:19.046Z,98766.56
2023-03-07T08:01:45.932Z,98756.09
2023-03-07T08:04:12.546Z,98754.63
2023-03-07T08:06:39.820Z,98747.03
2023-03-07T08:09:06.681Z,98745.06
2023-03-07T08:11:33.337Z,98723.63
2023-03-07T08:14:02.470Z,98731.47
2023-03-07T08:16:29.254Z,98743.50
2023-03-07T08:18:57.331Z,98758.56
2023-03-07T08:21:25.584Z,98766.41
2023-03-07T08:23:56.151Z,98754.81
2023-03-07T08:26:23.616Z,98766.72
2023-03-07T08:28:50.281Z,98777.72
2023-03-07T08:31:25.846Z,98788.34
2023-03-07T08:33:53.237Z,98789.53
2023-03-07T08:36:20.373Z,98788.47
2023-03-07T08:38:54.370Z,98775.81
2023-03-07T08:41:22.759Z,98761.63
2023-03-07T08:43:49.674Z,98739.72
2023-03-07T08:46:16.421Z,98728.69
2023-03-07T08:48:43.046Z,98720.81
2023-03-07T08:51:12.774Z,98719.06
2023-03-07T08:53:39.355Z,98720.88
2023-03-07T08:56:07.749Z,98714.72
2023-03-07T08:58:34.560Z,98716.53
2023-03-07T09:01:01.460Z,98705.78
2023-03-07T09:03:28.092Z,98702.13
2023-03-07T09:05:54.679Z,98708.88
2023-03-07T09:08:21.413Z,98696.66
2023-03-07T09:10:48.039Z,98694.47
2023-03-07T09:13:15.689Z,98693.56
2023-03-07T09:15:42.948Z,98681.00
2023-03-07T09:18:10.580Z,98686.25
2023-03-07T09:20:40.948Z,98689.09
2023-03-07T09:23:08.223Z,98681.44
2023-03-07T09:25:36.350Z,98671.72
2023-03-07T09:28:04.858Z,98669.94
2023-03-07T09:30:31.363Z,98664.53
2023-03-07T09:32:58.140Z,98655.00
2023-03-07T09:35:25.255Z,98650.09
2023-03-07T09:37:51.894Z,98653.97
2023-03-07T09:40:23.506Z,98657.50
2023-03-07T09:43:19.066Z,98648.25
2023-03-07T09:46:10.347Z,98652.88
2023-03-07T09:49:06.124Z,98644.44
2023-03-07T09:51:40.561Z,98635.56
2023-03-07T09:54:21.622Z,98623.13
2023-03-07T09:56:57.090Z,98620.22
2023-03-07T09:59:41.143Z,98617.16
2023-03-07T10:02:19.749Z,98611.47
2023-03-07T10:05:21.017Z,98612.00
2023-03-07T10:07:47.691Z,98604.56
2023-03-07T10:10:40.164Z,98600.38
2023-03-07T10:13:21.870Z,98604.25
2023-03-07T10:15:52.605Z,98603.56
2023-03-07T10:18:38.014Z,98594.44
2023-03-07T10:21:33.170Z,98590.19
2023-03-07T10:24:09.116Z,98594.81
2023-03-07T10:26:47.850Z,98584.94
2023-03-07T10:29:18.483Z,98592.97
2023-03-07T10:31:52.050Z,98581.38
2023-03-07T10:34:29.623Z,98576.41
2023-03-07T10:37:16.698Z,98584.28
2023-03-07T10:39:50.207Z,98583.66
2023-03-07T10:42:19.076Z,98579.41
2023-03-07T10:44:48.915Z,98571.75
2023-03-07T10:47:26.862Z,98562.50
2023-03-07T10:50:00.393Z,98571.09
2023-03-07T10:52:39.715Z,98575.31
2023-03-07T10:55:33.498Z,98573.63
2023-03-07T10:58:32.361Z,98568.41
2023-03-07T11:01:08.185Z,98568.53
2023-03-07T11:03:58.711Z,98574.56
2023-03-07T11:06:40.281Z,98585.53
2023-03-07T11:09:27.866Z,98604.94
2023-03-07T11:11:59.862Z,98609.25
2023-03-07T11:14:28.842Z,98618.56
2023-03-07T11:16:59.252Z,98615.13
2023-03-07T11:19:42.052Z,98605.94
2023-03-07T11:22:34.285Z,98610.19
2023-03-07T11:25:10.711Z,98615.41
2023-03-07T11:27:46.850Z,98621.28
2023-03-07T11:30:20.880Z,98632.31
2023-03-07T11:33:02.887Z,98641.69
2023-03-07T11:35:43.064Z,98640.88
2023-03-07T11:38:34.348Z,98644.13
2023-03-07T11:41:11.772Z,98647.56
2023-03-07T11:43:56.726Z,98650.09
2023-03-07T11:46:55.117Z,98657.78
2023-03-07T11:49:59.537Z,98655.19
2023-03-07T11:53:08.717Z,98678.25
2023-03-07T11:56:05.125Z,98674.97
2023-03-07T11:59:07.065Z,98680.19
2023-03-07T12:01:59.279Z,98686.13
2023-03-07T12:04:37.763Z,98683.59
2023-03-07T12:07:19.462Z,98690.94
2023-03-07T12:09:55.184Z,98692.44
2023-03-07T12:12:39.756Z,98692.31
2023-03-07T12:15:39.012Z,98677.41
2023-03-07T12:18:18.096Z,98625.28
2023-03-07T12:20:47.574Z,98571.19
2023-03-07T12:23:20.176Z,98500.88
2023-03-07T12:25:52.541Z,98445.88
2023-03-07T12:28:32.641Z,98444.75
2023-03-07T12:31:26.942Z,98455.31
2023-03-07T12:33:59.543Z,98438.09
2023-03-07T12:36:45.066Z,98414.47
2023-03-07T12:39:42.512Z,98401.56
2023-03-07T12:42:35.129Z,98389.03
2023-03-07T12:45:11.352Z,98376.34
2023-03-07T12:47:50.489Z,98366.06
2023-03-07T12:50:41.507Z,98348.19
2023-03-07T12:53:38.041Z,98350.03
2023-03-07T12:56:16.701Z,98353.34
2023-03-07T12:58:59.314Z,98357.41
2023-03-07T13:01:37.088Z,98340.31
2023-03-07T13:04:06.478Z,98363.31
2023-03-07T13:06:34.448Z,98340.19
2023-03-07T13:09:04.086Z,98346.16
2023-03-07T13:11:34.308Z,98345.91
2023-03-07T13:14:05.402Z,98344.13
2023-03-07T13:16:46.673Z,98337.47
2023-03-07T13:19:35.294Z,98368.38
2023-03-07T13:22:21.782Z,98336.22
2023-03-07T13:24:49.791Z,98366.88
2023-03-07T13:27:30.843Z,98368.28
2023-03-07T13:30:12.537Z,98374.44
2023-03-07T13:32:48.434Z,98381.03
2023-03-07T13:35:36.918Z,98391.06
2023-03-07T13:38:15.507Z,98396.47
2023-03-07T13:40:45.052Z,98408.09
2023-03-07T13:43:54.624Z,98419.81
2023-03-07T13:46:42.264Z,98442.69
2023-03-07T13:49:08.821Z,98439.28
2023-03-07T13:51:35.407Z,98439.22
2023-03-07T13:54:11.563Z,98438.66
2023-03-07T13:56:42.320Z,98448.81
2023-03-07T13:59:14.657Z,98451.09
2023-03-07T14:01:55.831Z,98473.94
2023-03-07T14:04:39.472Z,98440.72
2023-03-07T14:07:26.285Z,98422.22
2023-03-07T14:10:21.801Z,98426.28
2023-03-07T14:13:07.819Z,98412.09
2023-03-07T14:15:52.451Z,98397.53
2023-03-07T14:18:43.781Z,98386.59
2023-03-07T14:21:38.656Z,98389.97
2023-03-07T14:24:11.052Z,98380.81
2023-03-07T14:26:50.201Z,98382.50
2023-03-07T14:29:22.236Z,98371.41
2023-03-07T14:31:51.437Z,98376.66
2023-03-07T14:34:24.098Z,98370.72
2023-03-07T14:36:55.928Z,98362.22
2023-03-07T14:39:23.829Z,98340.44
2023-03-07T14:42:07.388Z,98345.09
2023-03-07T14:44:45.648Z,98329.31
2023-03-07T14:47:47.348Z,98305.75
2023-03-07T14:50:20.337Z,98290.56
2023-03-07T14:52:48.348Z,98281.28
2023-03-07T14:55:21.426Z,98278.69
2023-03-07T14:57:53.118Z,98277.19
2023-03-07T15:00:29.622Z,98290.84
2023-03-07T15:02:57.573Z,98288.28
2023-03-07T15:05:27.744Z,98279.13
2023-03-07T15:07:55.113Z,98270.88
2023-03-07T15:10:37.759Z,98272.03
2023-03-07T15:13:07.821Z,98287.31
2023-03-07T15:15:48.956Z,98281.19
2023-03-07T15:18:27.472Z,98282.06
2023-03-07T15:20:56.588Z,98286.31
2023-03-07T15:23:27.605Z,98296.97
2023-03-07T15:26:02.040Z,98287.81
2023-03-07T15:28:33.599Z,98306.50
2023-03-07T15:31:00.806Z,98315.84
2023-03-07T15:33:30.754Z,98332.56
2023-03-07T15:36:12.391Z,98351.72
2023-03-07T15:38:41.453Z,98358.53
2023-03-07T15:41:26.536Z,98360.44
2023-03-07T15:44:11.193Z,98366.53
2023-03-07T15:46:51.175Z,98366.56
2023-03-07T15:49:26.061Z,98369.06
2023-03-07T15:51:59.165Z,98370.53
2023-03-07T15:54:33.525Z,98370.69
2023-03-07T15:57:04.820Z,98376.72
2023-03-07T15:59:32.988Z,98382.56
2023-03-07T16:02:34.966Z,98376.50
2023-03-07T16:05:29.037Z,98373.16
2023-03-07T16:07:57.586Z,98380.00
2023-03-07T16:10:28.309Z,98381.63
2023-03-07T16:12:55.767Z,98384.78
2023-03-07T16:15:24.053Z,98389.16
2023-03-07T16:17:55.049Z,98391.72
2023-03-07T16:20:25.140Z,98392.59
2023-03-07T16:22:52.318Z,98392.88
2023-03-07T16:25:20.739Z,98407.25
2023-03-07T16:27:52.713Z,98409.75
2023-03-07T16:30:22.857Z,98402.47
2023-03-07T16:32:50.020Z,98402.28
2023-03-07T16:35:25.801Z,98403.19
2023-03-07T16:37:53.667Z,98403.88
2023-03-07T16:40:20.851Z,98400.56
2023-03-07T16:42:50.641Z,98405.56
2023-03-07T16:45:24.767Z,98405.47
2023-03-07T16:47:53.820Z,98409.91
2023-03-07T16:50:24.095Z,98410.72
2023-03-07T16:52:50.601Z,98409.94
2023-03-07T16:55:17.734Z,98407.50
2023-03-07T16:57:47.494Z,98407.53
2023-03-07T17:00:17.435Z,98420.19
2023-03-07T17:02:45.376Z,98416.09
2023-03-07T17:05:20.912Z,98423.53
2023-03-07T17:07:47.572Z,98424.47
2023-03-07T17:10:14.615Z,98424.41
2023-03-07T17:12:42.606Z,98423.53
2023-03-07T17:15:13.907Z,98426.94
2023-03-07T17:17:40.975Z,98437.13
2023-03-07T17:20:08.333Z,98427.88
2023-03-07T17:22:35.034Z,98416.00
2023-03-07T17:25:01.626Z,98419.28
2023-03-07T17:27:28.443Z,98419.31
2023-03-07T17:29:55.213Z,98426.13
2023-03-07T17:32:22.011Z,98428.69
2023-03-07T17:34:48.631Z,98427.97
2023-03-07T17:37:15.326Z,98428.06
2023-03-07T17:39:42.531Z,98425.41
2023-03-07T17:42:09.618Z,98417.84
2023-03-07T17:44:36.259Z,98426.41
2023-03-07T17:47:02.905Z,98429.84
2023-03-07T17:49:34.857Z,98434.88
2023-03-07T17:52:02.456Z,98442.53
2023-03-07T17:54:31.149Z,98446.78
2023-03-07T17:56:57.745Z,98447.63
2023-03-07T17:59:24.402Z,98450.19
2023-03-07T18:01:51.049Z,98453.56
2023-03-07T18:04:17.623Z,98449.34
2023-03-07T18:06:44.212Z,98444.19
2023-03-07T18:09:10.873Z,98448.47
2023-03-07T18:11:37.474Z,98445.16
2023-03-07T18:14:04.035Z,98455.34
2023-03-07T18:16:30.937Z,98446.97
2023-03-07T18:19:00.014Z,98458.88
2023-03-07T18:21:29.704Z,98456.38
2023-03-07T18:23:57.110Z,98461.50
2023-03-07T18:26:23.730Z,98451.34
2023-03-07T18:28:53.261Z,98460.75
2023-03-07T18:31:30.755Z,98454.00
2023-03-07T18:33:57.425Z,98461.63
2023-03-07T18:36:25.476Z,98462.41
2023-03-07T18:38:52.605Z,98462.31
2023-03-07T18:41:21.770Z,98455.47
2023-03-07T18:43:48.699Z,98456.25
2023-03-07T18:46:17.887Z,98449.44
2023-03-07T18:48:44.897Z,98445.13
2023-03-07T18:51:14.573Z,98459.47
2023-03-07T18:53:41.435Z,98455.34
2023-03-07T18:56:18.417Z,98449.34
2023-03-07T18:58:46.323Z,98457.91
2023-03-07T19:01:18.696Z,98475.00
2023-03-07T19:03:47.355Z,98458.00
2023-03-07T19:06:16.516Z,98456.22
2023-03-07T19:08:43.227Z,98445.19
2023-03-07T19:11:12.068Z,98451.13
2023-03-07T19:13:39.333Z,98459.56
2023-03-07T19:16:15.340Z,98455.34
2023-03-07T19:18:43.316Z,98453.56
2023-03-07T19:21:15.446Z,98454.47
2023-03-07T19:23:42.519Z,98455.28
2023-03-07T19:26:12.292Z,98457.81
2023-03-07T19:28:40.305Z,98462.09
2023-03-07T19:31:29.824Z,98466.28
2023-03-07T19:33:57.429Z,98462.06
2023-03-07T19:36:29.293Z,98462.06
2023-03-07T19:38:59.007Z,98464.84
2023-03-07T19:41:27.558Z,98464.03
2023-03-07T19:43:56.101Z,98463.06
2023-03-07T19:46:23.010Z,98468.00
2023-03-07T19:48:49.738Z,98464.53
2023-03-07T19:51:22.555Z,98466.91
2023-03-07T19:53:49.645Z,98462.69
2023-03-07T19:56:23.568Z,98465.13
2023-03-07T19:58:50.794Z,98461.81
2023-03-07T20:01:20.062Z,98455.13
2023-03-07T20:03:47.363Z,98454.03
2023-03-07T20:06:19.968Z,98451.25
2023-03-07T20:08:51.242Z,98449.66
2023-03-07T20:11:20.496Z,98454.69
2023-03-07T20:13:48.504Z,98451.03
2023-03-07T20:16:17.020Z,98441.75
2023-03-07T20:18:43.873Z,98440.81
2023-03-07T20:21:14.707Z,98436.66
2023-03-07T20:23:44.687Z,98423.69
2023-03-07T20:26:14.089Z,98413.44
2023-03-07T20:28:41.275Z,98422.69
2023-03-07T20:31:09.729Z,98418.41
2023-03-07T20:33:38.477Z,98407.34
2023-03-07T20:36:06.940Z,98408.97
2023-03-07T20:38:37.592Z,98401.28
2023-03-07T20:41:06.583Z,98394.53
2023-03-07T20:43:33.924Z,98391.13
2023-03-07T20:46:13.028Z,98397.03
2023-03-07T20:48:40.831Z,98392.75
2023-03-07T20:51:18.846Z,98388.53
2023-03-07T20:53:51.175Z,98379.88
2023-03-07T20:56:18.552Z,98387.53
2023-03-07T20:58:45.282Z,98390.91
2023-03-07T21:01:15.105Z,98383.19
2023-03-07T21:03:41.857Z,98387.34
2023-03-07T21:06:08.404Z,98379.56
2023-03-07T21:08:36.663Z,98368.34
2023-03-07T21:11:05.993Z,98363.22
2023-03-07T21:13:35.916Z,98357.25
2023-03-07T21:16:09.953Z,98358.78
2023-03-07T21:18:37.136Z,98352.84
2023-03-07T21:21:06.283Z,98357.78
2023-03-07T21:23:33.352Z,98346.69
2023-03-07T21:26:08.551Z,98350.94
2023-03-07T21:28:35.516Z,98350.94
2023-03-07T21:31:04.753Z,98342.31
2023-03-07T21:33:32.252Z,98334.69
2023-03-07T21:35:58.843Z,98341.50
2023-03-07T21:38:26.102Z,98345.69
2023-03-07T21:40:55.809Z,98346.28
2023-03-07T21:43:22.452Z,98342.00
2023-03-07T21:45:49.128Z,98336.06
2023-03-07T21:48:19.403Z,98328.38
2023-03-07T21:50:48.193Z,98331.69
2023-03-07T21:53:14.778Z,98332.50
2023-03-07T21:55:49.401Z,98338.44
2023-03-07T21:58:15.931Z,98338.34
2023-03-07T22:00:43.150Z,98332.47
2023-03-07T22:03:09.799Z,98323.91
2023-03-07T22:05:39.855Z,98308.66
2023-03-07T22:08:06.856Z,98310.53
2023-03-07T22:10:33.759Z,98320.69
2023-03-07T22:13:00.718Z,98318.19
2023-03-07T22:15:27.720Z,98301.31
2023-03-07T22:17:54.320Z,98304.63
2023-03-07T22:20:20.859Z,98301.28
2023-03-07T22:22:47.549Z,98290.41
2023-03-07T22:25:14.300Z,98300.50
2023-03-07T22:27:43.524Z,98294.63
2023-03-07T22:30:11.109Z,98281.84
2023-03-07T22:32:37.789Z,98272.78
2023-03-07T22:35:04.674Z,98268.63
2023-03-07T22:37:31.164Z,98275.38
2023-03-07T22:39:57.736Z,98276.34
2023-03-07T22:42:24.282Z,98273.84
2023-03-07T22:44:50.760Z,98281.66
2023-03-07T22:47:17.313Z,98275.69
2023-03-07T22:49:44.095Z,98273.28
2023-03-07T22:52:10.892Z,98279.25
2023-03-07T22:54:39.370Z,98275.09
2023-03-07T22:57:05.962Z,98276.84
2023-03-07T22:59:33.108Z,98265.84
2023-03-07T23:01:59.640Z,98269.28
2023-03-07T23:04:27.155Z,98265.06
2023-03-07T23:06:53.869Z,98260.81
2023-03-07T23:09:20.432Z,98265.06
2023-03-07T23:11:48.225Z,98260.81
2023-03-07T23:14:15.638Z,98262.63
2023-03-07T23:16:42.754Z,98262.78
2023-03-07T23:19:09.370Z,98238.88
2023-03-07T23:21:36.035Z,98233.69
2023-03-07T23:24:03.794Z,98236.97
2023-03-07T23:26:36.965Z,98222.59
2023-03-07T23:29:05.742Z,98209.81
2023-03-07T23:31:36.445Z,98201.38
2023-03-07T23:34:06.608Z,98192.81
2023-03-07T23:36:34.008Z,98200.44
2023-03-07T23:39:00.847Z,98183.56
2023-03-07T23:41:27.900Z,98177.88
2023-03-07T23:43:59.549Z,98171.09
2023-03-07T23:46:27.389Z,98177.94
2023-03-07T23:48:55.098Z,98186.22
2023-03-07T23:51:22.448Z,98187.13
2023-03-07T23:53:49.266Z,98185.34
2023-03-07T23:56:16.140Z,98180.13
2023-03-07T23:58:44.057Z,98169.97
